createdAt,value
2018-08-13T00:00:16.134Z,96.3
2018-08-13T00:01:16.070Z,96.5
2018-08-13T00:02:16.036Z,96.4
2018-08-13T00:03:15.953Z,96.4
2018-08-13T00:04:15.904Z,96.4
2018-08-13T00:05:16.272Z,96.5
2018-08-13T00:06:16.200Z,96.5
2018-08-13T00:07:19.166Z,96.6
2018-08-13T00:08:19.072Z,96.6
2018-08-13T00:09:19.218Z,96.6
2018-08-13T00:10:19.134Z,96.6
2018-08-13T00:11:19.038Z,96.5
2018-08-13T00:12:20.243Z,96.7
2018-08-13T00:13:20.160Z,96.6
2018-08-13T00:14:25.580Z,96.5
2018-08-13T00:15:28.762Z,96.6
2018-08-13T00:16:28.885Z,96.5
2018-08-13T00:17:29.363Z,96.5
2018-08-13T00:18:29.489Z,96.5
2018-08-13T00:19:32.234Z,96.4
2018-08-13T00:20:32.159Z,96.4
2018-08-13T00:21:32.288Z,96.5
2018-08-13T00:22:32.229Z,96.5
2018-08-13T00:23:32.365Z,96.5
2018-08-13T00:24:32.281Z,96.6
2018-08-13T00:25:33.634Z,96.6
2018-08-13T00:26:34.584Z,96.6
2018-08-13T00:27:34.569Z,96.6
2018-08-13T00:28:34.706Z,96.5
2018-08-13T00:29:34.626Z,96.5
2018-08-13T00:30:40.456Z,96.5
2018-08-13T00:31:43.243Z,96.5
2018-08-13T00:32:46.069Z,96.3
2018-08-13T00:33:45.990Z,96.2
2018-08-13T00:34:45.929Z,96.1
2018-08-13T00:35:49.004Z,96.4
2018-08-13T00:36:48.930Z,96.1
2018-08-13T00:37:49.104Z,96
2018-08-13T00:38:49.007Z,96
2018-08-13T00:39:49.136Z,95.9
2018-08-13T00:40:53.111Z,95.9
2018-08-13T00:41:53.022Z,95.8
2018-08-13T00:42:53.167Z,95.8
2018-08-13T00:43:53.088Z,95.7
2018-08-13T00:44:53.215Z,95.6
2018-08-13T00:45:56.577Z,95.7
2018-08-13T00:46:56.495Z,95.7
2018-08-13T00:47:56.649Z,95.6
2018-08-13T00:48:56.561Z,95.7
2018-08-13T00:49:56.697Z,95.7
2018-08-13T00:50:56.855Z,95.6
2018-08-13T00:51:56.768Z,95.5
2018-08-13T00:52:59.696Z,95.6
2018-08-13T00:53:59.617Z,95.6
2018-08-13T00:54:59.541Z,95.6
2018-08-13T00:56:00.957Z,95.5
2018-08-13T00:57:01.087Z,95.5
2018-08-13T00:58:01.007Z,95.4
2018-08-13T00:59:00.950Z,95.5
2018-08-13T01:00:00.861Z,95.5
2018-08-13T01:01:00.776Z,95.4
2018-08-13T01:02:00.699Z,95.4
2018-08-13T01:03:00.609Z,95.5
2018-08-13T01:04:00.585Z,95.6
2018-08-13T01:05:00.499Z,95.6
2018-08-13T01:06:01.858Z,95.6
2018-08-13T01:07:02.813Z,95.8
2018-08-13T01:08:02.725Z,95.7
2018-08-13T01:09:03.719Z,95.8
2018-08-13T01:10:03.847Z,95.9
2018-08-13T01:11:03.757Z,95.9
2018-08-13T01:12:03.665Z,96
2018-08-13T01:13:03.611Z,96
2018-08-13T01:14:03.523Z,96.1
2018-08-13T01:15:04.476Z,96.1
2018-08-13T01:16:07.641Z,96
2018-08-13T01:17:07.544Z,96.1
2018-08-13T01:18:08.449Z,96.5
2018-08-13T01:19:10.961Z,96.1
2018-08-13T01:20:10.895Z,96.1
2018-08-13T01:21:10.799Z,96.1
2018-08-13T01:22:10.934Z,96
2018-08-13T01:23:10.835Z,96
2018-08-13T01:24:14.715Z,95.9
2018-08-13T01:25:14.648Z,95.9
2018-08-13T01:26:15.017Z,95.9
2018-08-13T01:27:14.981Z,95.9
2018-08-13T01:28:14.894Z,95.9
2018-08-13T01:29:14.826Z,95.9
2018-08-13T01:30:14.751Z,95.9
2018-08-13T01:31:14.991Z,95.9
2018-08-13T01:32:14.901Z,96
2018-08-13T01:33:20.670Z,96
2018-08-13T01:34:20.568Z,96.1
2018-08-13T01:35:24.163Z,96.1
2018-08-13T01:36:24.561Z,96.3
2018-08-13T01:37:24.461Z,96.3
2018-08-13T01:38:24.383Z,96.3
2018-08-13T01:39:24.320Z,96.4
2018-08-13T01:40:24.223Z,96.5
2018-08-13T01:41:24.140Z,96.6
2018-08-13T01:42:24.072Z,96.6
2018-08-13T01:43:24.042Z,96.6
2018-08-13T01:44:23.954Z,96.6
2018-08-13T01:45:23.853Z,96.8
2018-08-13T01:46:24.697Z,96.7
2018-08-13T01:47:24.814Z,96.8
2018-08-13T01:48:24.725Z,96.8
2018-08-13T01:49:24.632Z,96.8
2018-08-13T01:50:24.559Z,96.9
2018-08-13T01:51:24.495Z,96.8
2018-08-13T01:52:24.417Z,96.9
2018-08-13T01:53:24.320Z,97
2018-08-13T01:54:24.272Z,96.9
2018-08-13T01:55:24.190Z,96.9
2018-08-13T01:56:24.604Z,97
2018-08-13T01:57:24.557Z,97
2018-08-13T01:58:24.477Z,97.1
2018-08-13T01:59:24.411Z,97
2018-08-13T02:00:24.316Z,97.1
2018-08-13T02:01:24.574Z,97.1
2018-08-13T02:02:24.699Z,97
2018-08-13T02:03:24.607Z,97
2018-08-13T02:04:24.551Z,96.9
2018-08-13T02:05:24.456Z,96.8
2018-08-13T02:06:24.804Z,96.7
2018-08-13T02:07:24.733Z,96.9
2018-08-13T02:08:24.639Z,96.8
2018-08-13T02:09:24.618Z,96.9
2018-08-13T02:10:24.518Z,96.9
2018-08-13T02:11:24.430Z,96.9
2018-08-13T02:12:24.387Z,96.8
2018-08-13T02:13:24.295Z,96.8
2018-08-13T02:14:24.214Z,96.9
2018-08-13T02:15:24.155Z,97
2018-08-13T02:16:24.533Z,96.9
2018-08-13T02:17:24.510Z,97
2018-08-13T02:18:24.409Z,97
2018-08-13T02:19:24.334Z,97
2018-08-13T02:20:24.273Z,97
2018-08-13T02:21:24.197Z,97.1
2018-08-13T02:22:24.188Z,97.1
2018-08-13T02:23:24.110Z,97.2
2018-08-13T02:24:24.248Z,97.3
2018-08-13T02:25:24.180Z,97.5
2018-08-13T02:26:24.543Z,97.5
2018-08-13T02:27:24.508Z,97.5
2018-08-13T02:28:24.431Z,97.6
2018-08-13T02:29:24.325Z,97.6
2018-08-13T02:30:24.240Z,97.6
2018-08-13T02:31:24.167Z,97.6
2018-08-13T02:32:24.137Z,97.6
2018-08-13T02:33:24.034Z,97.6
2018-08-13T02:34:23.941Z,97.7
2018-08-13T02:35:24.880Z,97.7
2018-08-13T02:36:25.293Z,97.8
2018-08-13T02:37:25.262Z,97.8
2018-08-13T02:38:25.184Z,97.8
2018-08-13T02:39:25.215Z,97.7
2018-08-13T02:40:25.132Z,97.7
2018-08-13T02:41:25.070Z,97.7
2018-08-13T02:42:24.992Z,97.7
2018-08-13T02:43:24.928Z,97.7
2018-08-13T02:44:24.833Z,97.8
2018-08-13T02:45:24.768Z,97.8
2018-08-13T02:46:25.203Z,97.7
2018-08-13T02:47:25.135Z,97.8
2018-08-13T02:48:25.066Z,97.7
2018-08-13T02:49:25.009Z,97.8
2018-08-13T02:50:24.926Z,97.8
2018-08-13T02:51:24.838Z,97.7
2018-08-13T02:52:24.762Z,97.8
2018-08-13T02:53:24.692Z,97.7
2018-08-13T02:54:24.633Z,97.7
2018-08-13T02:55:24.553Z,97.6
2018-08-13T02:56:24.958Z,97.6
2018-08-13T02:57:24.881Z,97.6
2018-08-13T02:58:24.829Z,97.7
2018-08-13T02:59:24.754Z,97.6
2018-08-13T03:00:24.675Z,97.5
2018-08-13T03:01:24.596Z,97.6
2018-08-13T03:02:24.530Z,97.6
2018-08-13T03:03:24.483Z,97.6
2018-08-13T03:04:24.659Z,97.7
2018-08-13T03:05:24.593Z,97.6
2018-08-13T03:06:24.995Z,97.5
2018-08-13T03:07:24.916Z,97.6
2018-08-13T03:08:24.831Z,97.5
2018-08-13T03:09:24.774Z,97.6
2018-08-13T03:10:24.692Z,97.6
2018-08-13T03:11:24.619Z,97.7
2018-08-13T03:12:24.520Z,97.7
2018-08-13T03:13:24.428Z,97.7
2018-08-13T03:14:24.384Z,97.7
2018-08-13T03:15:24.313Z,97.8
2018-08-13T03:16:24.693Z,97.9
2018-08-13T03:17:24.637Z,97.8
2018-08-13T03:18:24.538Z,97.9
2018-08-13T03:19:24.449Z,97.9
2018-08-13T03:20:24.406Z,97.9
2018-08-13T03:21:24.346Z,97.9
2018-08-13T03:22:25.248Z,98.1
2018-08-13T03:23:25.158Z,98
2018-08-13T03:24:25.311Z,98
2018-08-13T03:25:25.291Z,98.1
2018-08-13T03:26:25.691Z,98.1
2018-08-13T03:27:25.623Z,98
2018-08-13T03:28:25.540Z,98
2018-08-13T03:29:25.511Z,98
2018-08-13T03:30:25.521Z,97.9
2018-08-13T03:31:25.504Z,97.9
2018-08-13T03:32:25.425Z,98
2018-08-13T03:33:25.521Z,98
2018-08-13T03:34:25.577Z,98.1
2018-08-13T03:35:25.493Z,98.1
2018-08-13T03:36:25.857Z,98.1
2018-08-13T03:37:25.766Z,98
2018-08-13T03:38:25.670Z,98.1
2018-08-13T03:39:25.607Z,98.2
2018-08-13T03:40:25.524Z,98.2
2018-08-13T03:41:25.450Z,98.2
2018-08-13T03:42:25.378Z,98.2
2018-08-13T03:43:25.287Z,98.1
2018-08-13T03:44:25.287Z,98.2
2018-08-13T03:45:25.208Z,98.2
2018-08-13T03:46:25.555Z,98.3
2018-08-13T03:47:25.470Z,98.2
2018-08-13T03:48:25.383Z,98.1
2018-08-13T03:49:25.301Z,98.1
2018-08-13T03:50:25.220Z,98
2018-08-13T03:51:25.139Z,97.9
2018-08-13T03:52:25.086Z,97.9
2018-08-13T03:53:25.031Z,97.9
2018-08-13T03:54:24.953Z,97.8
2018-08-13T03:55:24.872Z,97.8
2018-08-13T03:56:25.303Z,97.7
2018-08-13T03:57:25.212Z,97.7
2018-08-13T03:58:25.111Z,97.7
2018-08-13T03:59:25.026Z,97.8
2018-08-13T04:00:24.927Z,97.7
2018-08-13T04:01:24.831Z,97.7
2018-08-13T04:02:24.793Z,98.1
2018-08-13T04:03:24.711Z,97.7
2018-08-13T04:04:24.621Z,97.6
2018-08-13T04:05:24.529Z,97.4
2018-08-13T04:06:24.926Z,97.4
2018-08-13T04:07:24.848Z,97.3
2018-08-13T04:08:24.754Z,97.3
2018-08-13T04:09:24.690Z,97.5
2018-08-13T04:10:24.608Z,97.1
2018-08-13T04:11:24.517Z,97.2
2018-08-13T04:12:24.415Z,97.1
2018-08-13T04:13:24.348Z,97
2018-08-13T04:14:24.265Z,97
2018-08-13T04:15:24.191Z,97
2018-08-13T04:16:24.544Z,97
2018-08-13T04:17:24.461Z,97
2018-08-13T04:18:24.386Z,97.1
2018-08-13T04:19:24.283Z,97
2018-08-13T04:20:24.187Z,97.1
2018-08-13T04:21:24.131Z,97
2018-08-13T04:22:24.037Z,97.1
2018-08-13T04:23:24.179Z,97
2018-08-13T04:24:24.085Z,97.2
2018-08-13T04:25:23.999Z,97.1
2018-08-13T04:26:24.371Z,97.3
2018-08-13T04:27:24.277Z,97.3
2018-08-13T04:28:24.219Z,97.3
2018-08-13T04:29:24.367Z,97.3
2018-08-13T04:30:24.298Z,97.3
2018-08-13T04:31:24.235Z,97.2
2018-08-13T04:32:24.140Z,97.3
2018-08-13T04:33:24.119Z,97.3
2018-08-13T04:34:26.278Z,97.2
2018-08-13T04:35:29.208Z,97.2
2018-08-13T04:36:29.642Z,97.2
2018-08-13T04:37:29.556Z,97.1
2018-08-13T04:38:29.533Z,97.2
2018-08-13T04:39:29.518Z,97.2
2018-08-13T04:40:29.426Z,97.2
2018-08-13T04:41:29.327Z,97.2
2018-08-13T04:42:29.242Z,97.2
2018-08-13T04:43:29.172Z,97.3
2018-08-13T04:44:29.095Z,97.3
2018-08-13T04:45:29.007Z,97.2
2018-08-13T04:46:29.357Z,97.2
2018-08-13T04:47:29.320Z,97.2
2018-08-13T04:48:29.234Z,97.2
2018-08-13T04:49:29.188Z,97.1
2018-08-13T04:50:29.107Z,97.1
2018-08-13T04:51:29.011Z,97
2018-08-13T04:52:28.926Z,97.1
2018-08-13T04:53:28.830Z,97.1
2018-08-13T04:54:28.750Z,97.1
2018-08-13T04:55:28.661Z,97.1
2018-08-13T04:56:29.549Z,97.2
2018-08-13T04:57:29.469Z,97.1
2018-08-13T04:58:29.376Z,97.2
2018-08-13T04:59:29.309Z,97.2
2018-08-13T05:00:29.442Z,97.3
2018-08-13T05:01:29.361Z,97.4
2018-08-13T05:02:29.278Z,97.4
2018-08-13T05:03:29.190Z,97.4
2018-08-13T05:04:29.108Z,97.4
2018-08-13T05:05:29.017Z,97.5
2018-08-13T05:06:29.372Z,97.4
2018-08-13T05:07:29.960Z,97.5
2018-08-13T05:08:30.236Z,97.3
2018-08-13T05:09:30.866Z,97
2018-08-13T05:10:34.855Z,96.9
2018-08-13T05:11:35.780Z,96.8
2018-08-13T05:12:36.696Z,96.7
2018-08-13T05:13:36.616Z,96.6
2018-08-13T05:14:37.470Z,96.7
2018-08-13T05:15:37.371Z,96.4
2018-08-13T05:16:38.708Z,96.2
2018-08-13T05:17:38.880Z,96.1
2018-08-13T05:18:38.806Z,95.9
2018-08-13T05:19:39.753Z,95.9
2018-08-13T05:20:39.662Z,95.8
2018-08-13T05:21:39.574Z,95.7
2018-08-13T05:22:39.493Z,95.5
2018-08-13T05:23:39.626Z,95.4
2018-08-13T05:24:39.560Z,95.1
2018-08-13T05:25:39.506Z,95
2018-08-13T05:26:43.029Z,94.8
2018-08-13T05:27:43.064Z,94.6
2018-08-13T05:28:42.973Z,94.3
2018-08-13T05:29:43.899Z,94.3
2018-08-13T05:30:43.829Z,93.9
2018-08-13T05:31:44.761Z,93.6
2018-08-13T05:32:44.668Z,93.7
2018-08-13T05:33:45.249Z,93.7
2018-08-13T05:34:48.204Z,93.6
2018-08-13T05:35:51.259Z,93.4
2018-08-13T05:36:51.624Z,93.1
2018-08-13T05:37:57.143Z,93.2
2018-08-13T05:38:57.042Z,92.7
2018-08-13T05:39:59.673Z,92.6
2018-08-13T05:40:59.635Z,92.3
2018-08-13T05:41:59.541Z,92.4
2018-08-13T05:42:59.454Z,92.4
2018-08-13T05:44:02.713Z,92.2
2018-08-13T05:45:02.653Z,92
2018-08-13T05:46:02.637Z,91.7
2018-08-13T05:47:02.997Z,91.4
2018-08-13T05:48:03.139Z,91
2018-08-13T05:49:03.061Z,91.4
2018-08-13T05:50:06.973Z,91.2
2018-08-13T05:51:06.878Z,91
2018-08-13T05:52:07.898Z,90.9
2018-08-13T05:53:07.813Z,90.7
2018-08-13T05:54:07.830Z,90.6
2018-08-13T05:55:07.780Z,90.5
2018-08-13T05:56:07.917Z,90.4
2018-08-13T05:57:08.358Z,90.1
2018-08-13T05:58:08.270Z,90.2
2018-08-13T05:59:11.069Z,90
2018-08-13T06:00:11.066Z,89.2
2018-08-13T06:01:20.100Z,89.3
2018-08-13T06:02:20.021Z,88.7
2018-08-13T06:03:22.758Z,89.2
2018-08-13T06:04:25.647Z,88.9
2018-08-13T06:05:25.570Z,88.2
2018-08-13T06:06:26.409Z,88
2018-08-13T06:07:33.636Z,87.5
2018-08-13T06:08:33.551Z,87.5
2018-08-13T06:09:33.489Z,88.3
2018-08-13T06:10:36.176Z,87.5
2018-08-13T06:11:36.439Z,87
2018-08-13T06:12:36.766Z,86.7
2018-08-13T06:13:36.689Z,87.1
2018-08-13T06:14:36.907Z,86.8
2018-08-13T06:15:36.862Z,86.3
2018-08-13T06:16:37.007Z,85.7
2018-08-13T06:17:37.741Z,85.9
2018-08-13T06:18:46.588Z,85.2
2018-08-13T06:19:49.324Z,85.7
2018-08-13T06:20:49.273Z,86.1
2018-08-13T06:21:53.195Z,85.5
2018-08-13T06:22:53.116Z,84.7
2018-08-13T06:23:53.240Z,84.9
2018-08-13T06:24:53.159Z,84.8
2018-08-13T06:25:53.131Z,84.5
2018-08-13T06:26:53.037Z,83.5
2018-08-13T06:27:53.382Z,83.2
2018-08-13T06:28:53.511Z,83.6
2018-08-13T06:29:53.464Z,83.4
2018-08-13T06:30:53.356Z,82.9
2018-08-13T06:31:53.277Z,83.7
2018-08-13T06:32:53.842Z,83.4
2018-08-13T06:33:54.162Z,83
2018-08-13T06:34:54.217Z,82.6
2018-08-13T06:35:54.127Z,82.1
2018-08-13T06:36:54.256Z,81.9
2018-08-13T06:37:55.162Z,84.3
2018-08-13T06:38:55.966Z,85.8
2018-08-13T06:39:55.885Z,87.2
2018-08-13T06:40:55.806Z,87.8
2018-08-13T06:41:55.757Z,88.5
2018-08-13T06:42:55.697Z,88.9
2018-08-13T06:43:56.848Z,88.7
2018-08-13T06:44:57.005Z,88.7
2018-08-13T06:45:59.641Z,89.5
2018-08-13T06:47:01.013Z,88.3
2018-08-13T06:48:01.833Z,88.6
2018-08-13T06:49:01.746Z,88
2018-08-13T06:50:04.719Z,88.7
2018-08-13T06:51:05.650Z,89.6
2018-08-13T06:52:08.116Z,90.3
2018-08-13T06:53:10.764Z,88.7
2018-08-13T06:54:10.707Z,89.5
2018-08-13T06:55:19.622Z,88
2018-08-13T06:56:19.539Z,87.4
2018-08-13T06:57:19.472Z,87.7
2018-08-13T06:58:20.022Z,87.5
2018-08-13T06:59:20.151Z,86.9
2018-08-13T07:00:20.046Z,86
2018-08-13T07:01:29.275Z,85.8
2018-08-13T07:02:29.199Z,83.3
2018-08-13T07:03:30.099Z,82.9
2018-08-13T07:04:32.562Z,83
2018-08-13T07:05:32.465Z,82.3
2018-08-13T07:06:32.385Z,81.5
2018-08-13T07:07:32.309Z,81.4
2018-08-13T07:08:34.018Z,81.5
2018-08-13T07:09:34.942Z,81.4
2018-08-13T07:10:34.862Z,79.8
2018-08-13T07:11:34.768Z,79.2
2018-08-13T07:12:34.694Z,78.4
2018-08-13T07:13:34.588Z,78
2018-08-13T07:14:34.498Z,77.3
2018-08-13T07:15:38.584Z,76.5
2018-08-13T07:16:41.297Z,78.5
2018-08-13T07:17:41.241Z,78
2018-08-13T07:18:41.804Z,76.1
2018-08-13T07:19:41.706Z,74.8
2018-08-13T07:20:41.618Z,76.8
2018-08-13T07:21:41.777Z,76.8
2018-08-13T07:22:41.696Z,76.9
2018-08-13T07:23:41.619Z,75.7
2018-08-13T07:24:41.544Z,75.6
2018-08-13T07:25:41.469Z,76.8
2018-08-13T07:26:41.364Z,75.5
2018-08-13T07:27:41.666Z,74.5
2018-08-13T07:28:42.645Z,74
2018-08-13T07:29:45.529Z,74.5
2018-08-13T07:30:45.680Z,73.3
2018-08-13T07:31:45.585Z,73.5
2018-08-13T07:32:45.534Z,73.7
2018-08-13T07:33:45.945Z,72.3
2018-08-13T07:34:46.150Z,73
2018-08-13T07:35:46.272Z,72.1
2018-08-13T07:36:49.152Z,72.1
2018-08-13T07:37:49.063Z,73.5
2018-08-13T07:38:49.494Z,73.1
2018-08-13T07:39:49.428Z,73.6
2018-08-13T07:40:49.599Z,72.7
2018-08-13T07:41:49.501Z,72.5
2018-08-13T07:42:49.417Z,73.3
2018-08-13T07:43:49.405Z,72
2018-08-13T07:44:49.318Z,72.1
2018-08-13T07:45:49.319Z,71.4
2018-08-13T07:46:49.232Z,70.9
2018-08-13T07:47:49.230Z,70
2018-08-13T07:48:49.568Z,71.2
2018-08-13T07:49:49.853Z,69.9
2018-08-13T07:50:50.939Z,70.8
2018-08-13T07:51:51.345Z,70.2
2018-08-13T07:52:51.728Z,71.1
2018-08-13T07:53:51.642Z,70.7
2018-08-13T07:54:54.381Z,69.1
2018-08-13T07:55:54.288Z,68.6
2018-08-13T07:56:54.205Z,68.4
2018-08-13T07:57:54.423Z,70.6
2018-08-13T07:58:54.850Z,68.8
2018-08-13T07:59:54.896Z,69.6
2018-08-13T08:00:54.957Z,66.6
2018-08-13T08:01:54.866Z,65.7
2018-08-13T08:02:54.872Z,67.3
2018-08-13T08:03:54.773Z,67.7
2018-08-13T08:04:54.701Z,67.7
2018-08-13T08:05:54.610Z,67.4
2018-08-13T08:06:54.599Z,67.3
2018-08-13T08:07:54.508Z,67.7
2018-08-13T08:08:54.877Z,66.7
2018-08-13T08:09:54.771Z,67.1
2018-08-13T08:10:54.707Z,68.4
2018-08-13T08:11:54.618Z,67.2
2018-08-13T08:12:55.195Z,67
2018-08-13T08:13:55.157Z,67.1
2018-08-13T08:14:55.061Z,67.8
2018-08-13T08:15:54.991Z,66.2
2018-08-13T08:16:54.901Z,66.4
2018-08-13T08:17:54.889Z,68.2
2018-08-13T08:18:55.242Z,68.9
2018-08-13T08:19:55.158Z,69.4
2018-08-13T08:20:55.156Z,70.5
2018-08-13T08:21:55.073Z,70.4
2018-08-13T08:22:54.988Z,69.7
2018-08-13T08:23:54.907Z,69.9
2018-08-13T08:24:54.819Z,68.9
2018-08-13T08:25:55.748Z,69.1
2018-08-13T08:26:55.661Z,70
2018-08-13T08:27:55.550Z,70
2018-08-13T08:28:55.921Z,72.2
2018-08-13T08:29:55.894Z,70
2018-08-13T08:30:56.481Z,69.8
2018-08-13T08:31:56.619Z,69.3
2018-08-13T08:32:56.581Z,70
2018-08-13T08:33:56.489Z,70.3
2018-08-13T08:34:56.406Z,69.3
2018-08-13T08:35:56.354Z,70.2
2018-08-13T08:36:56.264Z,69.3
2018-08-13T08:37:56.176Z,69.6
2018-08-13T08:38:57.763Z,69.4
2018-08-13T08:39:57.688Z,66.5
2018-08-13T08:41:01.921Z,66.7
2018-08-13T08:42:01.832Z,65.6
2018-08-13T08:43:01.750Z,64.9
2018-08-13T08:44:04.586Z,66.7
2018-08-13T08:45:04.510Z,69
2018-08-13T08:46:05.084Z,70.4
2018-08-13T08:47:05.491Z,70.7
2018-08-13T08:48:06.406Z,70.5
2018-08-13T08:49:06.788Z,70.5
2018-08-13T08:50:06.702Z,70.7
2018-08-13T08:51:06.641Z,70.5
2018-08-13T08:52:06.549Z,70.7
2018-08-13T08:53:06.466Z,71
2018-08-13T08:54:06.594Z,68.4
2018-08-13T08:55:06.496Z,68.7
2018-08-13T08:56:06.406Z,69.8
2018-08-13T08:57:06.568Z,69.4
2018-08-13T08:58:06.475Z,66.9
2018-08-13T08:59:06.842Z,66.6
2018-08-13T09:00:06.744Z,67
2018-08-13T09:01:06.674Z,65.3
2018-08-13T09:02:06.594Z,64.4
2018-08-13T09:03:06.496Z,66.3
2018-08-13T09:04:07.100Z,64.8
2018-08-13T09:05:07.002Z,64.5
2018-08-13T09:06:06.917Z,65.4
2018-08-13T09:07:07.065Z,64.7
2018-08-13T09:08:06.987Z,63.5
2018-08-13T09:09:07.343Z,61.1
2018-08-13T09:10:07.492Z,63.3
2018-08-13T09:11:07.424Z,61
2018-08-13T09:12:07.342Z,61.3
2018-08-13T09:13:07.503Z,62.9
2018-08-13T09:14:07.656Z,61
2018-08-13T09:15:07.615Z,63.1
2018-08-13T09:16:10.387Z,62.5
2018-08-13T09:17:10.313Z,61.1
2018-08-13T09:18:10.232Z,61.9
2018-08-13T09:19:11.173Z,63
2018-08-13T09:20:11.337Z,62.2
2018-08-13T09:21:11.242Z,61.2
2018-08-13T09:22:11.158Z,59.4
2018-08-13T09:23:11.091Z,59.4
2018-08-13T09:24:11.007Z,60.1
2018-08-13T09:25:11.215Z,61.4
2018-08-13T09:26:11.133Z,60.4
2018-08-13T09:27:11.048Z,58.9
2018-08-13T09:28:10.967Z,61
2018-08-13T09:29:11.336Z,61.6
2018-08-13T09:30:11.238Z,62.2
2018-08-13T09:31:11.155Z,62.3
2018-08-13T09:32:11.050Z,62.1
2018-08-13T09:33:10.956Z,61.9
2018-08-13T09:34:10.899Z,60.8
2018-08-13T09:35:10.821Z,59.8
2018-08-13T09:36:10.730Z,60.1
2018-08-13T09:37:10.645Z,61.4
2018-08-13T09:38:10.557Z,61.2
2018-08-13T09:39:10.926Z,58.3
2018-08-13T09:40:10.843Z,58.8
2018-08-13T09:41:11.000Z,60.6
2018-08-13T09:42:10.923Z,61.1
2018-08-13T09:43:10.826Z,61.8
2018-08-13T09:44:10.730Z,59.9
2018-08-13T09:45:10.748Z,61
2018-08-13T09:46:10.671Z,59.3
2018-08-13T09:47:10.582Z,58.7
2018-08-13T09:48:10.845Z,61.2
2018-08-13T09:49:11.609Z,59.7
2018-08-13T09:50:11.614Z,60.1
2018-08-13T09:51:11.526Z,60.4
2018-08-13T09:52:14.426Z,59
2018-08-13T09:53:14.352Z,59.4
2018-08-13T09:54:14.253Z,60
2018-08-13T09:55:14.194Z,60.3
2018-08-13T09:56:14.110Z,60.4
2018-08-13T09:57:14.032Z,57.7
2018-08-13T09:58:13.965Z,59.6
2018-08-13T09:59:14.382Z,61.9
2018-08-13T10:00:14.615Z,59.3
2018-08-13T10:01:14.832Z,58.7
2018-08-13T10:02:14.745Z,59.5
2018-08-13T10:03:14.657Z,60
2018-08-13T10:04:14.565Z,60
2018-08-13T10:05:14.473Z,57.1
2018-08-13T10:06:14.635Z,57.5
2018-08-13T10:07:14.551Z,58.4
2018-08-13T10:08:14.485Z,56.5
2018-08-13T10:09:14.942Z,57
2018-08-13T10:10:14.931Z,58.2
2018-08-13T10:11:14.872Z,58.3
2018-08-13T10:12:14.789Z,58.9
2018-08-13T10:13:14.701Z,57
2018-08-13T10:14:14.625Z,56.9
2018-08-13T10:15:14.533Z,58.3
2018-08-13T10:16:14.470Z,58.7
2018-08-13T10:17:14.402Z,59.3
2018-08-13T10:18:14.763Z,58.6
2018-08-13T10:19:15.345Z,59.4
2018-08-13T10:20:15.253Z,59.1
2018-08-13T10:21:15.169Z,57.1
2018-08-13T10:22:15.106Z,57.5
2018-08-13T10:23:15.018Z,57.9
2018-08-13T10:24:14.948Z,56.5
2018-08-13T10:25:14.865Z,56.2
2018-08-13T10:26:15.015Z,57.3
2018-08-13T10:27:14.963Z,58.1
2018-08-13T10:28:14.870Z,58.4
2018-08-13T10:29:15.247Z,57.3
2018-08-13T10:30:15.178Z,55.6
2018-08-13T10:31:15.100Z,56.5
2018-08-13T10:32:15.064Z,56.5
2018-08-13T10:33:14.996Z,56.1
2018-08-13T10:34:14.902Z,57.5
2018-08-13T10:35:14.830Z,57.2
2018-08-13T10:36:14.746Z,56.4
2018-08-13T10:37:14.647Z,56.6
2018-08-13T10:38:14.593Z,57.4
2018-08-13T10:39:14.955Z,56.6
2018-08-13T10:40:14.864Z,56.5
2018-08-13T10:41:14.762Z,57.4
2018-08-13T10:42:17.356Z,58.3
2018-08-13T10:43:17.291Z,57
2018-08-13T10:44:17.212Z,56.9
2018-08-13T10:45:18.128Z,58.9
2018-08-13T10:46:18.040Z,58.8
2018-08-13T10:47:17.963Z,56.8
2018-08-13T10:48:17.916Z,57.9
2018-08-13T10:49:18.310Z,59.3
2018-08-13T10:50:18.227Z,58.9
2018-08-13T10:51:20.499Z,59
2018-08-13T10:52:20.457Z,57.7
2018-08-13T10:53:20.368Z,57.2
2018-08-13T10:54:20.283Z,58
2018-08-13T10:55:20.193Z,59.4
2018-08-13T10:56:20.122Z,59.8
2018-08-13T10:57:20.026Z,60.6
2018-08-13T10:58:19.960Z,60.3
2018-08-13T10:59:20.333Z,59.7
2018-08-13T11:00:20.231Z,58.5
2018-08-13T11:01:20.153Z,57.8
2018-08-13T11:02:20.060Z,57.9
2018-08-13T11:03:19.986Z,59.3
2018-08-13T11:04:19.964Z,60.1
2018-08-13T11:05:19.904Z,60
2018-08-13T11:06:19.830Z,59.8
2018-08-13T11:07:19.735Z,60.2
2018-08-13T11:08:19.647Z,57.5
2018-08-13T11:09:19.996Z,57.5
2018-08-13T11:10:20.138Z,58.7
2018-08-13T11:11:20.254Z,60.4
2018-08-13T11:12:20.186Z,61
2018-08-13T11:13:20.218Z,61
2018-08-13T11:14:20.261Z,60.9
2018-08-13T11:15:20.197Z,59.5
2018-08-13T11:16:20.108Z,58.3
2018-08-13T11:17:20.058Z,59.1
2018-08-13T11:18:19.963Z,59.4
2018-08-13T11:19:22.958Z,59.8
2018-08-13T11:20:22.957Z,58.3
2018-08-13T11:21:22.880Z,58.2
2018-08-13T11:22:22.801Z,58.8
2018-08-13T11:23:22.719Z,58.1
2018-08-13T11:24:22.654Z,57.2
2018-08-13T11:25:22.903Z,58.1
2018-08-13T11:26:22.967Z,59
2018-08-13T11:27:22.895Z,60
2018-08-13T11:28:22.829Z,59.5
2018-08-13T11:29:23.175Z,57.7
2018-08-13T11:30:23.101Z,58.6
2018-08-13T11:31:23.056Z,58.9
2018-08-13T11:32:23.182Z,57.7
2018-08-13T11:33:23.093Z,57.6
2018-08-13T11:34:22.991Z,57.6
2018-08-13T11:35:23.142Z,58.3
2018-08-13T11:36:26.777Z,59.4
2018-08-13T11:37:26.689Z,61.8
2018-08-13T11:38:26.615Z,61.1
2018-08-13T11:39:27.018Z,61.5
2018-08-13T11:40:26.926Z,63.7
2018-08-13T11:41:26.851Z,62.5
2018-08-13T11:42:26.757Z,63.8
2018-08-13T11:43:27.674Z,63.2
2018-08-13T11:44:27.602Z,63.3
2018-08-13T11:45:27.514Z,64.7
2018-08-13T11:46:27.989Z,65.6
2018-08-13T11:47:31.116Z,63.6
2018-08-13T11:48:31.019Z,64.9
2018-08-13T11:49:31.372Z,64.9
2018-08-13T11:50:31.303Z,64.8
2018-08-13T11:51:31.241Z,65.9
2018-08-13T11:52:31.396Z,66
2018-08-13T11:53:31.527Z,65.4
2018-08-13T11:54:31.434Z,65.9
2018-08-13T11:55:31.349Z,63.4
2018-08-13T11:56:31.855Z,63.8
2018-08-13T11:57:32.196Z,64.3
2018-08-13T11:58:32.128Z,64.7
2018-08-13T11:59:35.250Z,65.7
2018-08-13T12:00:35.184Z,63.4
2018-08-13T12:01:35.121Z,63.4
2018-08-13T12:02:35.019Z,64.3
2018-08-13T12:03:34.930Z,64.8
2018-08-13T12:04:34.841Z,65.2
2018-08-13T12:05:35.761Z,65.4
2018-08-13T12:06:35.670Z,65
2018-08-13T12:07:35.588Z,64.6
2018-08-13T12:08:35.500Z,65.3
2018-08-13T12:09:36.020Z,65.2
2018-08-13T12:10:35.939Z,63.9
2018-08-13T12:11:35.865Z,64.1
2018-08-13T12:12:35.817Z,64.1
2018-08-13T12:13:35.730Z,64.2
2018-08-13T12:14:35.702Z,63.8
2018-08-13T12:15:35.634Z,64.2
2018-08-13T12:16:35.535Z,63.9
2018-08-13T12:17:35.444Z,63.3
2018-08-13T12:18:35.366Z,64.2
2018-08-13T12:19:36.173Z,64.5
2018-08-13T12:20:36.454Z,64.7
2018-08-13T12:21:36.365Z,64
2018-08-13T12:22:36.337Z,63.1
2018-08-13T12:23:36.507Z,62.8
2018-08-13T12:24:36.650Z,61.8
2018-08-13T12:25:36.592Z,61.9
2018-08-13T12:26:36.507Z,64.5
2018-08-13T12:27:39.086Z,64.2
2018-08-13T12:28:39.024Z,61.5
2018-08-13T12:29:39.408Z,63.1
2018-08-13T12:30:39.298Z,64.5
2018-08-13T12:31:39.215Z,64.4
2018-08-13T12:32:39.147Z,64
2018-08-13T12:33:39.093Z,64
2018-08-13T12:34:39.002Z,64.4
2018-08-13T12:35:38.909Z,63.3
2018-08-13T12:36:39.076Z,61.6
2018-08-13T12:37:38.995Z,62.1
2018-08-13T12:38:38.928Z,62.3
2018-08-13T12:39:39.514Z,62.8
2018-08-13T12:40:39.426Z,62.4
2018-08-13T12:41:39.343Z,62
2018-08-13T12:42:39.293Z,62.3
2018-08-13T12:43:39.420Z,63.5
2018-08-13T12:44:39.360Z,63.4
2018-08-13T12:45:39.286Z,64
2018-08-13T12:46:39.854Z,63.9
2018-08-13T12:47:39.759Z,64.5
2018-08-13T12:48:39.674Z,64.3
2018-08-13T12:49:40.539Z,64.3
2018-08-13T12:50:40.449Z,65.2
2018-08-13T12:51:40.607Z,65.3
2018-08-13T12:52:40.590Z,64.9
2018-08-13T12:53:40.510Z,66.3
2018-08-13T12:54:40.439Z,65.7
2018-08-13T12:55:40.351Z,66.4
2018-08-13T12:56:40.937Z,65.5
2018-08-13T12:57:40.866Z,65.2
2018-08-13T12:58:40.775Z,65.9
2018-08-13T12:59:41.191Z,66.3
2018-08-13T13:00:41.141Z,65.6
2018-08-13T13:01:41.052Z,65.9
2018-08-13T13:02:40.974Z,65.7
2018-08-13T13:03:40.897Z,66.9
2018-08-13T13:04:40.805Z,66.2
2018-08-13T13:05:40.785Z,66.5
2018-08-13T13:06:40.701Z,66.7
2018-08-13T13:07:40.625Z,66.6
2018-08-13T13:08:40.557Z,67.3
2018-08-13T13:09:41.174Z,67.8
2018-08-13T13:10:41.110Z,66.2
2018-08-13T13:11:41.019Z,67.3
2018-08-13T13:12:41.170Z,67.7
2018-08-13T13:13:41.110Z,67.7
2018-08-13T13:14:41.128Z,67.9
2018-08-13T13:15:41.170Z,66.8
2018-08-13T13:16:41.128Z,67.2
2018-08-13T13:17:41.047Z,68.5
2018-08-13T13:18:40.951Z,68.7
2018-08-13T13:19:41.323Z,69.6
2018-08-13T13:20:41.830Z,68.5
2018-08-13T13:21:42.129Z,68.2
2018-08-13T13:22:42.039Z,67.9
2018-08-13T13:23:41.974Z,68.1
2018-08-13T13:24:41.901Z,66.7
2018-08-13T13:25:42.038Z,68.4
2018-08-13T13:26:41.961Z,69.7
2018-08-13T13:27:41.903Z,69.9
2018-08-13T13:28:41.813Z,69.6